sensor_id;sensor_type;location;lat;lon;timestamp;P1;durP1;ratioP1;P2;durP2;ratioP2
67749;SDS011;54550;48.838;8.828;2022-07-29T00:01:42;9.50;;;8.60;;
67749;SDS011;54550;48.838;8.828;2022-07-29T00:04:08;9.33;;;8.20;;
67749;SDS011;54550;48.838;8.828;2022-07-29T00:06:33;11.50;;;9.03;;
67749;SDS011;54550;48.838;8.828;2022-07-29T00:08:59;16.87;;;9.40;;
67749;SDS011;54550;48.838;8.828;2022-07-29T00:11:24;13.50;;;9.53;;
67749;SDS011;54550;48.838;8.828;2022-07-29T00:13:50;11.67;;;9.00;;
67749;SDS011;54550;48.838;8.828;2022-07-29T00:16:15;14.80;;;9.50;;
67749;SDS011;54550;48.838;8.828;2022-07-29T00:18:41;10.93;;;8.80;;
67749;SDS011;54550;48.838;8.828;2022-07-29T00:21:07;10.73;;;9.20;;
67749;SDS011;54550;48.838;8.828;2022-07-29T00:23:32;11.33;;;8.93;;
67749;SDS011;54550;48.838;8.828;2022-07-29T00:25:59;10.57;;;9.30;;
67749;SDS011;54550;48.838;8.828;2022-07-29T00:28:25;10.87;;;9.10;;
67749;SDS011;54550;48.838;8.828;2022-07-29T00:30:50;11.30;;;7.80;;
67749;SDS011;54550;48.838;8.828;2022-07-29T00:33:16;12.83;;;8.63;;
67749;SDS011;54550;48.838;8.828;2022-07-29T00:35:41;9.83;;;7.97;;
67749;SDS011;54550;48.838;8.828;2022-07-29T00:38:11;13.57;;;8.40;;
67749;SDS011;54550;48.838;8.828;2022-07-29T00:40:39;10.57;;;8.50;;
67749;SDS011;54550;48.838;8.828;2022-07-29T00:43:05;12.73;;;9.10;;
67749;SDS011;54550;48.838;8.828;2022-07-29T00:45:30;8.90;;;8.00;;
67749;SDS011;54550;48.838;8.828;2022-07-29T00:47:56;12.60;;;7.80;;
67749;SDS011;54550;48.838;8.828;2022-07-29T00:50:22;11.63;;;8.07;;
67749;SDS011;54550;48.838;8.828;2022-07-29T00:52:48;14.23;;;8.73;;
67749;SDS011;54550;48.838;8.828;2022-07-29T00:55:14;12.20;;;7.80;;
67749;SDS011;54550;48.838;8.828;2022-07-29T00:57:42;12.10;;;9.23;;
67749;SDS011;54550;48.838;8.828;2022-07-29T01:00:10;16.97;;;9.10;;
67749;SDS011;54550;48.838;8.828;2022-07-29T01:02:37;11.43;;;8.30;;
67749;SDS011;54550;48.838;8.828;2022-07-29T01:05:03;29.07;;;8.17;;
67749;SDS011;54550;48.838;8.828;2022-07-29T01:07:30;9.50;;;8.33;;
67749;SDS011;54550;48.838;8.828;2022-07-29T01:09:58;16.63;;;8.47;;
67749;SDS011;54550;48.838;8.828;2022-07-29T01:12:25;16.70;;;8.93;;
67749;SDS011;54550;48.838;8.828;2022-07-29T01:14:53;18.40;;;9.10;;
67749;SDS011;54550;48.838;8.828;2022-07-29T01:17:24;11.50;;;8.30;;
67749;SDS011;54550;48.838;8.828;2022-07-29T01:28:52;14.07;;;8.00;;
67749;SDS011;54550;48.838;8.828;2022-07-29T01:31:54;17.40;;;8.17;;
67749;SDS011;54550;48.838;8.828;2022-07-29T01:34:23;13.60;;;8.60;;
67749;SDS011;54550;48.838;8.828;2022-07-29T01:37:01;10.60;;;7.50;;
67749;SDS011;54550;48.838;8.828;2022-07-29T01:39:33;9.00;;;8.20;;
67749;SDS011;54550;48.838;8.828;2022-07-29T01:47:58;12.57;;;7.03;;
67749;SDS011;54550;48.838;8.828;2022-07-29T01:50:30;8.23;;;7.43;;
67749;SDS011;54550;48.838;8.828;2022-07-29T01:53:00;11.13;;;7.10;;
67749;SDS011;54550;48.838;8.828;2022-07-29T01:55:32;10.50;;;7.20;;
67749;SDS011;54550;48.838;8.828;2022-07-29T01:58:02;10.00;;;7.00;;
67749;SDS011;54550;48.838;8.828;2022-07-29T02:00:29;7.97;;;6.90;;
67749;SDS011;54550;48.838;8.828;2022-07-29T02:02:56;10.87;;;7.60;;
67749;SDS011;54550;48.838;8.828;2022-07-29T02:05:26;8.57;;;6.30;;
67749;SDS011;54550;48.838;8.828;2022-07-29T02:07:53;9.73;;;6.27;;
67749;SDS011;54550;48.838;8.828;2022-07-29T02:10:21;7.63;;;5.33;;
67749;SDS011;54550;48.838;8.828;2022-07-29T02:12:51;8.83;;;7.07;;
67749;SDS011;54550;48.838;8.828;2022-07-29T02:15:19;11.23;;;6.60;;
67749;SDS011;54550;48.838;8.828;2022-07-29T02:17:55;7.70;;;7.00;;
67749;SDS011;54550;48.838;8.828;2022-07-29T02:20:24;8.20;;;6.20;;
67749;SDS011;54550;48.838;8.828;2022-07-29T02:22:51;15.73;;;6.83;;
67749;SDS011;54550;48.838;8.828;2022-07-29T02:25:18;10.07;;;7.57;;
67749;SDS011;54550;48.838;8.828;2022-07-29T02:27:45;13.33;;;7.17;;
67749;SDS011;54550;48.838;8.828;2022-07-29T02:30:13;7.33;;;6.63;;
67749;SDS011;54550;48.838;8.828;2022-07-29T02:32:40;15.20;;;6.93;;
67749;SDS011;54550;48.838;8.828;2022-07-29T02:35:08;9.63;;;7.17;;
67749;SDS011;54550;48.838;8.828;2022-07-29T02:37:35;11.47;;;6.73;;
67749;SDS011;54550;48.838;8.828;2022-07-29T02:40:01;8.23;;;6.37;;
67749;SDS011;54550;48.838;8.828;2022-07-29T02:42:27;7.60;;;5.40;;
67749;SDS011;54550;48.838;8.828;2022-07-29T02:44:54;7.13;;;5.63;;
67749;SDS011;54550;48.838;8.828;2022-07-29T02:50:03;6.13;;;4.93;;
67749;SDS011;54550;48.838;8.828;2022-07-29T02:52:41;5.57;;;5.07;;
67749;SDS011;54550;48.838;8.828;2022-07-29T02:55:32;8.20;;;5.60;;
67749;SDS011;54550;48.838;8.828;2022-07-29T03:00:51;5.80;;;4.97;;
67749;SDS011;54550;48.838;8.828;2022-07-29T03:03:18;7.37;;;5.90;;
67749;SDS011;54550;48.838;8.828;2022-07-29T03:05:46;13.70;;;6.20;;
67749;SDS011;54550;48.838;8.828;2022-07-29T03:08:12;7.20;;;5.87;;
67749;SDS011;54550;48.838;8.828;2022-07-29T03:10:39;6.33;;;5.73;;
67749;SDS011;54550;48.838;8.828;2022-07-29T03:13:10;6.53;;;5.70;;
67749;SDS011;54550;48.838;8.828;2022-07-29T03:15:38;6.80;;;5.40;;
67749;SDS011;54550;48.838;8.828;2022-07-29T03:18:04;7.43;;;6.10;;
67749;SDS011;54550;48.838;8.828;2022-07-29T03:20:31;8.87;;;5.00;;
67749;SDS011;54550;48.838;8.828;2022-07-29T03:22:57;4.93;;;4.53;;
67749;SDS011;54550;48.838;8.828;2022-07-29T03:25:22;5.33;;;4.53;;
67749;SDS011;54550;48.838;8.828;2022-07-29T03:27:48;12.00;;;4.67;;
67749;SDS011;54550;48.838;8.828;2022-07-29T03:30:15;6.73;;;4.13;;
67749;SDS011;54550;48.838;8.828;2022-07-29T03:32:41;4.60;;;4.07;;
67749;SDS011;54550;48.838;8.828;2022-07-29T03:35:06;4.80;;;4.03;;
67749;SDS011;54550;48.838;8.828;2022-07-29T03:37:32;10.63;;;4.73;;
67749;SDS011;54550;48.838;8.828;2022-07-29T03:39:58;7.00;;;4.70;;
67749;SDS011;54550;48.838;8.828;2022-07-29T03:42:27;5.73;;;3.67;;
67749;SDS011;54550;48.838;8.828;2022-07-29T03:44:55;8.23;;;4.17;;
67749;SDS011;54550;48.838;8.828;2022-07-29T03:47:24;5.37;;;4.13;;
67749;SDS011;54550;48.838;8.828;2022-07-29T03:49:52;5.87;;;4.33;;
67749;SDS011;54550;48.838;8.828;2022-07-29T03:52:21;5.03;;;3.73;;
67749;SDS011;54550;48.838;8.828;2022-07-29T03:54:47;6.40;;;4.63;;
67749;SDS011;54550;48.838;8.828;2022-07-29T03:57:13;8.33;;;4.20;;
67749;SDS011;54550;48.838;8.828;2022-07-29T03:59:40;10.60;;;3.83;;
67749;SDS011;54550;48.838;8.828;2022-07-29T04:02:08;6.40;;;5.03;;
67749;SDS011;54550;48.838;8.828;2022-07-29T04:04:35;4.50;;;4.10;;
67749;SDS011;54550;48.838;8.828;2022-07-29T04:07:01;10.57;;;5.10;;
67749;SDS011;54550;48.838;8.828;2022-07-29T04:09:27;15.60;;;5.00;;
67749;SDS011;54550;48.838;8.828;2022-07-29T04:11:53;8.90;;;4.00;;
67749;SDS011;54550;48.838;8.828;2022-07-29T04:14:19;5.77;;;3.87;;
67749;SDS011;54550;48.838;8.828;2022-07-29T04:16:45;5.87;;;4.60;;
67749;SDS011;54550;48.838;8.828;2022-07-29T04:19:11;6.00;;;4.50;;
67749;SDS011;54550;48.838;8.828;2022-07-29T04:21:37;7.63;;;4.80;;
67749;SDS011;54550;48.838;8.828;2022-07-29T04:24:03;9.10;;;4.57;;
67749;SDS011;54550;48.838;8.828;2022-07-29T04:26:29;5.50;;;4.20;;
67749;SDS011;54550;48.838;8.828;2022-07-29T04:28:55;5.90;;;4.37;;
67749;SDS011;54550;48.838;8.828;2022-07-29T04:31:20;8.30;;;4.90;;
67749;SDS011;54550;48.838;8.828;2022-07-29T04:33:46;7.37;;;5.37;;
67749;SDS011;54550;48.838;8.828;2022-07-29T04:36:11;10.70;;;4.80;;
67749;SDS011;54550;48.838;8.828;2022-07-29T04:38:37;7.70;;;5.47;;
67749;SDS011;54550;48.838;8.828;2022-07-29T04:41:03;11.13;;;5.40;;
67749;SDS011;54550;48.838;8.828;2022-07-29T04:43:29;6.27;;;4.63;;
67749;SDS011;54550;48.838;8.828;2022-07-29T04:45:54;5.77;;;5.20;;
67749;SDS011;54550;48.838;8.828;2022-07-29T04:48:20;6.57;;;4.70;;
67749;SDS011;54550;48.838;8.828;2022-07-29T04:50:45;9.67;;;5.23;;
67749;SDS011;54550;48.838;8.828;2022-07-29T04:53:11;6.70;;;4.37;;
67749;SDS011;54550;48.838;8.828;2022-07-29T04:55:36;4.40;;;4.00;;
67749;SDS011;54550;48.838;8.828;2022-07-29T04:58:02;8.93;;;4.83;;
67749;SDS011;54550;48.838;8.828;2022-07-29T05:00:27;4.53;;;4.13;;
67749;SDS011;54550;48.838;8.828;2022-07-29T05:02:53;5.70;;;4.00;;
67749;SDS011;54550;48.838;8.828;2022-07-29T05:05:19;18.03;;;4.77;;
67749;SDS011;54550;48.838;8.828;2022-07-29T05:07:45;5.30;;;4.80;;
67749;SDS011;54550;48.838;8.828;2022-07-29T05:10:10;7.33;;;4.97;;
67749;SDS011;54550;48.838;8.828;2022-07-29T05:12:36;7.13;;;4.90;;
67749;SDS011;54550;48.838;8.828;2022-07-29T05:15:02;8.17;;;4.93;;
67749;SDS011;54550;48.838;8.828;2022-07-29T05:17:28;5.17;;;4.40;;
67749;SDS011;54550;48.838;8.828;2022-07-29T05:19:53;6.80;;;4.20;;
67749;SDS011;54550;48.838;8.828;2022-07-29T05:22:19;6.73;;;4.90;;
67749;SDS011;54550;48.838;8.828;2022-07-29T05:24:45;5.63;;;4.40;;
67749;SDS011;54550;48.838;8.828;2022-07-29T05:27:11;7.03;;;4.60;;
67749;SDS011;54550;48.838;8.828;2022-07-29T05:29:37;8.33;;;4.77;;
67749;SDS011;54550;48.838;8.828;2022-07-29T05:32:03;4.90;;;4.40;;
67749;SDS011;54550;48.838;8.828;2022-07-29T05:34:29;4.90;;;4.47;;
67749;SDS011;54550;48.838;8.828;2022-07-29T05:36:55;11.27;;;3.77;;
67749;SDS011;54550;48.838;8.828;2022-07-29T05:39:21;10.70;;;4.27;;
67749;SDS011;54550;48.838;8.828;2022-07-29T05:41:47;10.43;;;4.57;;
67749;SDS011;54550;48.838;8.828;2022-07-29T05:44:14;4.27;;;3.77;;
67749;SDS011;54550;48.838;8.828;2022-07-29T05:46:40;8.03;;;3.63;;
67749;SDS011;54550;48.838;8.828;2022-07-29T05:49:05;7.57;;;4.20;;
67749;SDS011;54550;48.838;8.828;2022-07-29T05:51:32;4.57;;;4.13;;
67749;SDS011;54550;48.838;8.828;2022-07-29T05:53:59;8.60;;;4.20;;
67749;SDS011;54550;48.838;8.828;2022-07-29T05:56:24;3.93;;;3.60;;
67749;SDS011;54550;48.838;8.828;2022-07-29T05:58:50;7.30;;;4.67;;
67749;SDS011;54550;48.838;8.828;2022-07-29T06:01:16;4.90;;;4.23;;
67749;SDS011;54550;48.838;8.828;2022-07-29T06:03:42;11.13;;;3.97;;
67749;SDS011;54550;48.838;8.828;2022-07-29T06:06:08;4.93;;;4.43;;
67749;SDS011;54550;48.838;8.828;2022-07-29T06:08:33;5.23;;;4.00;;
67749;SDS011;54550;48.838;8.828;2022-07-29T06:11:01;15.37;;;4.10;;
67749;SDS011;54550;48.838;8.828;2022-07-29T06:13:27;6.27;;;4.00;;
67749;SDS011;54550;48.838;8.828;2022-07-29T06:15:52;8.60;;;4.20;;
67749;SDS011;54550;48.838;8.828;2022-07-29T06:18:18;6.30;;;3.77;;
67749;SDS011;54550;48.838;8.828;2022-07-29T06:20:45;6.50;;;4.13;;
67749;SDS011;54550;48.838;8.828;2022-07-29T06:23:11;5.30;;;4.20;;
67749;SDS011;54550;48.838;8.828;2022-07-29T06:25:37;6.03;;;4.43;;
67749;SDS011;54550;48.838;8.828;2022-07-29T06:28:04;8.90;;;4.17;;
67749;SDS011;54550;48.838;8.828;2022-07-29T06:30:29;6.60;;;4.10;;
67749;SDS011;54550;48.838;8.828;2022-07-29T06:32:55;9.47;;;4.30;;
67749;SDS011;54550;48.838;8.828;2022-07-29T06:35:20;6.03;;;4.50;;
67749;SDS011;54550;48.838;8.828;2022-07-29T06:37:46;7.60;;;4.33;;
67749;SDS011;54550;48.838;8.828;2022-07-29T06:40:12;5.20;;;3.60;;
67749;SDS011;54550;48.838;8.828;2022-07-29T06:42:56;6.10;;;4.37;;
67749;SDS011;54550;48.838;8.828;2022-07-29T06:45:22;7.13;;;4.03;;
67749;SDS011;54550;48.838;8.828;2022-07-29T06:47:47;4.53;;;3.27;;
67749;SDS011;54550;48.838;8.828;2022-07-29T06:50:14;7.73;;;4.07;;
67749;SDS011;54550;48.838;8.828;2022-07-29T06:52:41;4.53;;;3.90;;
67749;SDS011;54550;48.838;8.828;2022-07-29T06:55:07;6.77;;;3.27;;
67749;SDS011;54550;48.838;8.828;2022-07-29T06:57:34;6.80;;;3.90;;
67749;SDS011;54550;48.838;8.828;2022-07-29T07:00:01;5.13;;;4.20;;
67749;SDS011;54550;48.838;8.828;2022-07-29T07:02:29;7.43;;;3.90;;
67749;SDS011;54550;48.838;8.828;2022-07-29T07:04:54;8.33;;;3.63;;
67749;SDS011;54550;48.838;8.828;2022-07-29T07:07:20;4.10;;;3.70;;
67749;SDS011;54550;48.838;8.828;2022-07-29T07:09:45;3.63;;;2.97;;
67749;SDS011;54550;48.838;8.828;2022-07-29T07:12:11;5.47;;;3.77;;
67749;SDS011;54550;48.838;8.828;2022-07-29T07:14:38;3.53;;;3.00;;
67749;SDS011;54550;48.838;8.828;2022-07-29T07:17:05;8.27;;;4.40;;
67749;SDS011;54550;48.838;8.828;2022-07-29T07:19:32;10.67;;;3.43;;
67749;SDS011;54550;48.838;8.828;2022-07-29T07:21:57;5.37;;;3.00;;
67749;SDS011;54550;48.838;8.828;2022-07-29T07:24:23;3.80;;;2.87;;
67749;SDS011;54550;48.838;8.828;2022-07-29T07:26:48;4.60;;;2.90;;
67749;SDS011;54550;48.838;8.828;2022-07-29T07:29:14;7.63;;;3.40;;
67749;SDS011;54550;48.838;8.828;2022-07-29T07:31:39;6.50;;;3.13;;
67749;SDS011;54550;48.838;8.828;2022-07-29T07:34:05;4.10;;;3.13;;
67749;SDS011;54550;48.838;8.828;2022-07-29T07:36:30;3.90;;;3.03;;
67749;SDS011;54550;48.838;8.828;2022-07-29T07:38:56;11.30;;;3.17;;
67749;SDS011;54550;48.838;8.828;2022-07-29T07:41:21;4.87;;;3.33;;
67749;SDS011;54550;48.838;8.828;2022-07-29T07:43:47;4.00;;;3.60;;
67749;SDS011;54550;48.838;8.828;2022-07-29T07:46:13;4.50;;;3.60;;
67749;SDS011;54550;48.838;8.828;2022-07-29T07:48:39;8.17;;;3.67;;
67749;SDS011;54550;48.838;8.828;2022-07-29T07:51:05;5.87;;;3.30;;
67749;SDS011;54550;48.838;8.828;2022-07-29T07:53:30;9.43;;;3.50;;
67749;SDS011;54550;48.838;8.828;2022-07-29T07:55:56;5.90;;;3.60;;
67749;SDS011;54550;48.838;8.828;2022-07-29T07:58:21;3.23;;;2.60;;
67749;SDS011;54550;48.838;8.828;2022-07-29T08:00:47;8.13;;;3.10;;
67749;SDS011;54550;48.838;8.828;2022-07-29T08:03:12;6.30;;;3.00;;
67749;SDS011;54550;48.838;8.828;2022-07-29T08:05:38;3.00;;;2.67;;
67749;SDS011;54550;48.838;8.828;2022-07-29T08:08:05;4.40;;;2.63;;
67749;SDS011;54550;48.838;8.828;2022-07-29T08:10:31;4.90;;;3.00;;
67749;SDS011;54550;48.838;8.828;2022-07-29T08:13:16;5.63;;;3.23;;
67749;SDS011;54550;48.838;8.828;2022-07-29T08:15:41;5.13;;;3.30;;
67749;SDS011;54550;48.838;8.828;2022-07-29T08:18:08;4.90;;;2.83;;
67749;SDS011;54550;48.838;8.828;2022-07-29T08:20:33;6.40;;;2.83;;
67749;SDS011;54550;48.838;8.828;2022-07-29T08:23:00;5.13;;;2.73;;
67749;SDS011;54550;48.838;8.828;2022-07-29T08:25:27;8.43;;;2.80;;
67749;SDS011;54550;48.838;8.828;2022-07-29T08:27:52;5.70;;;3.13;;
67749;SDS011;54550;48.838;8.828;2022-07-29T08:30:18;9.93;;;2.83;;
67749;SDS011;54550;48.838;8.828;2022-07-29T08:32:44;6.53;;;3.00;;
67749;SDS011;54550;48.838;8.828;2022-07-29T08:35:09;5.63;;;3.37;;
67749;SDS011;54550;48.838;8.828;2022-07-29T08:37:35;8.97;;;2.87;;
67749;SDS011;54550;48.838;8.828;2022-07-29T08:40:00;6.80;;;2.47;;
67749;SDS011;54550;48.838;8.828;2022-07-29T08:42:26;4.17;;;2.50;;
67749;SDS011;54550;48.838;8.828;2022-07-29T08:44:51;5.33;;;3.07;;
67749;SDS011;54550;48.838;8.828;2022-07-29T08:47:18;5.20;;;3.10;;
67749;SDS011;54550;48.838;8.828;2022-07-29T08:49:44;5.20;;;2.80;;
67749;SDS011;54550;48.838;8.828;2022-07-29T08:52:12;5.10;;;3.30;;
67749;SDS011;54550;48.838;8.828;2022-07-29T08:54:39;7.67;;;2.83;;
67749;SDS011;54550;48.838;8.828;2022-07-29T08:57:08;8.57;;;3.13;;
67749;SDS011;54550;48.838;8.828;2022-07-29T08:59:37;4.43;;;2.90;;
67749;SDS011;54550;48.838;8.828;2022-07-29T09:02:07;9.20;;;3.43;;
67749;SDS011;54550;48.838;8.828;2022-07-29T09:04:43;17.20;;;2.40;;
67749;SDS011;54550;48.838;8.828;2022-07-29T09:07:10;9.43;;;2.87;;
67749;SDS011;54550;48.838;8.828;2022-07-29T09:09:39;7.60;;;3.27;;
67749;SDS011;54550;48.838;8.828;2022-07-29T09:12:05;6.90;;;2.73;;
67749;SDS011;54550;48.838;8.828;2022-07-29T09:14:33;6.87;;;3.10;;
67749;SDS011;54550;48.838;8.828;2022-07-29T09:16:58;2.93;;;2.47;;
67749;SDS011;54550;48.838;8.828;2022-07-29T09:19:25;4.50;;;2.93;;
67749;SDS011;54550;48.838;8.828;2022-07-29T09:22:01;8.87;;;3.27;;
67749;SDS011;54550;48.838;8.828;2022-07-29T09:27:10;3.73;;;2.43;;
67749;SDS011;54550;48.838;8.828;2022-07-29T09:29:44;2.40;;;2.20;;
67749;SDS011;54550;48.838;8.828;2022-07-29T09:32:09;8.90;;;2.87;;
67749;SDS011;54550;48.838;8.828;2022-07-29T09:34:35;5.83;;;2.60;;
67749;SDS011;54550;48.838;8.828;2022-07-29T09:37:02;5.97;;;2.97;;
67749;SDS011;54550;48.838;8.828;2022-07-29T09:39:29;10.80;;;2.87;;
67749;SDS011;54550;48.838;8.828;2022-07-29T09:42:00;5.67;;;3.40;;
67749;SDS011;54550;48.838;8.828;2022-07-29T09:44:49;10.67;;;2.93;;
67749;SDS011;54550;48.838;8.828;2022-07-29T09:47:15;4.10;;;2.57;;
67749;SDS011;54550;48.838;8.828;2022-07-29T09:52:24;7.13;;;2.93;;
67749;SDS011;54550;48.838;8.828;2022-07-29T09:54:51;16.50;;;3.27;;
67749;SDS011;54550;48.838;8.828;2022-07-29T09:57:25;8.30;;;2.90;;
67749;SDS011;54550;48.838;8.828;2022-07-29T09:59:59;12.30;;;2.10;;
67749;SDS011;54550;48.838;8.828;2022-07-29T10:02:32;5.90;;;2.70;;
67749;SDS011;54550;48.838;8.828;2022-07-29T10:04:59;3.33;;;2.00;;
67749;SDS011;54550;48.838;8.828;2022-07-29T10:07:26;4.97;;;2.50;;
67749;SDS011;54550;48.838;8.828;2022-07-29T10:10:07;7.13;;;3.23;;
67749;SDS011;54550;48.838;8.828;2022-07-29T10:12:33;6.17;;;2.30;;
67749;SDS011;54550;48.838;8.828;2022-07-29T10:14:58;5.60;;;2.33;;
67749;SDS011;54550;48.838;8.828;2022-07-29T10:17:27;5.53;;;2.43;;
67749;SDS011;54550;48.838;8.828;2022-07-29T10:19:53;3.67;;;2.47;;
67749;SDS011;54550;48.838;8.828;2022-07-29T10:22:19;6.93;;;2.93;;
67749;SDS011;54550;48.838;8.828;2022-07-29T10:24:45;3.00;;;2.33;;
67749;SDS011;54550;48.838;8.828;2022-07-29T10:27:10;3.73;;;2.30;;
67749;SDS011;54550;48.838;8.828;2022-07-29T10:29:36;9.53;;;2.60;;
67749;SDS011;54550;48.838;8.828;2022-07-29T10:35:29;6.90;;;2.80;;
67749;SDS011;54550;48.838;8.828;2022-07-29T10:43:37;3.30;;;2.60;;
67749;SDS011;54550;48.838;8.828;2022-07-29T10:46:07;7.77;;;2.37;;
67749;SDS011;54550;48.838;8.828;2022-07-29T10:48:34;10.40;;;3.10;;
67749;SDS011;54550;48.838;8.828;2022-07-29T10:51:01;5.90;;;2.70;;
67749;SDS011;54550;48.838;8.828;2022-07-29T10:53:48;5.73;;;3.03;;
67749;SDS011;54550;48.838;8.828;2022-07-29T11:01:44;7.23;;;3.10;;
67749;SDS011;54550;48.838;8.828;2022-07-29T11:04:11;4.13;;;2.47;;
67749;SDS011;54550;48.838;8.828;2022-07-29T11:09:27;6.37;;;2.70;;
67749;SDS011;54550;48.838;8.828;2022-07-29T11:11:55;16.37;;;2.70;;
67749;SDS011;54550;48.838;8.828;2022-07-29T11:17:21;7.23;;;2.73;;
67749;SDS011;54550;48.838;8.828;2022-07-29T11:19:47;2.90;;;2.07;;
67749;SDS011;54550;48.838;8.828;2022-07-29T11:22:31;8.53;;;2.40;;
67749;SDS011;54550;48.838;8.828;2022-07-29T11:28:08;4.80;;;2.47;;
67749;SDS011;54550;48.838;8.828;2022-07-29T11:30:50;5.67;;;2.90;;
67749;SDS011;54550;48.838;8.828;2022-07-29T11:33:30;6.17;;;3.07;;
67749;SDS011;54550;48.838;8.828;2022-07-29T11:36:14;5.63;;;2.63;;
67749;SDS011;54550;48.838;8.828;2022-07-29T11:38:40;4.33;;;2.80;;
67749;SDS011;54550;48.838;8.828;2022-07-29T11:41:25;4.23;;;2.53;;
67749;SDS011;54550;48.838;8.828;2022-07-29T11:43:57;9.87;;;3.27;;
67749;SDS011;54550;48.838;8.828;2022-07-29T11:49:10;5.17;;;2.90;;
67749;SDS011;54550;48.838;8.828;2022-07-29T11:51:37;8.83;;;3.70;;
67749;SDS011;54550;48.838;8.828;2022-07-29T11:54:03;5.03;;;2.27;;
67749;SDS011;54550;48.838;8.828;2022-07-29T11:56:30;10.83;;;2.60;;
67749;SDS011;54550;48.838;8.828;2022-07-29T11:59:14;15.67;;;2.90;;
67749;SDS011;54550;48.838;8.828;2022-07-29T12:01:53;9.70;;;2.93;;
67749;SDS011;54550;48.838;8.828;2022-07-29T12:04:20;10.40;;;3.37;;
67749;SDS011;54550;48.838;8.828;2022-07-29T12:06:51;10.00;;;3.30;;
67749;SDS011;54550;48.838;8.828;2022-07-29T12:09:21;5.73;;;2.70;;
67749;SDS011;54550;48.838;8.828;2022-07-29T12:11:47;4.67;;;2.20;;
67749;SDS011;54550;48.838;8.828;2022-07-29T12:14:26;30.43;;;2.70;;
67749;SDS011;54550;48.838;8.828;2022-07-29T12:16:53;10.03;;;3.13;;
67749;SDS011;54550;48.838;8.828;2022-07-29T12:19:18;12.00;;;3.47;;
67749;SDS011;54550;48.838;8.828;2022-07-29T12:21:45;6.70;;;2.67;;
67749;SDS011;54550;48.838;8.828;2022-07-29T12:24:11;3.20;;;2.90;;
67749;SDS011;54550;48.838;8.828;2022-07-29T12:26:48;4.10;;;3.20;;
67749;SDS011;54550;48.838;8.828;2022-07-29T12:29:18;8.37;;;3.37;;
67749;SDS011;54550;48.838;8.828;2022-07-29T12:31:44;4.17;;;2.70;;
67749;SDS011;54550;48.838;8.828;2022-07-29T12:34:12;4.27;;;2.50;;
67749;SDS011;54550;48.838;8.828;2022-07-29T12:36:40;4.10;;;2.77;;
67749;SDS011;54550;48.838;8.828;2022-07-29T12:39:06;5.47;;;2.20;;
67749;SDS011;54550;48.838;8.828;2022-07-29T12:41:34;3.20;;;2.90;;
67749;SDS011;54550;48.838;8.828;2022-07-29T12:43:59;9.90;;;3.00;;
67749;SDS011;54550;48.838;8.828;2022-07-29T12:46:25;9.80;;;2.43;;
67749;SDS011;54550;48.838;8.828;2022-07-29T12:48:52;7.03;;;2.70;;
67749;SDS011;54550;48.838;8.828;2022-07-29T12:51:28;4.83;;;2.80;;
67749;SDS011;54550;48.838;8.828;2022-07-29T12:54:02;8.00;;;2.40;;
67749;SDS011;54550;48.838;8.828;2022-07-29T12:56:29;15.63;;;3.27;;
67749;SDS011;54550;48.838;8.828;2022-07-29T12:58:54;12.13;;;3.27;;
67749;SDS011;54550;48.838;8.828;2022-07-29T13:01:20;6.60;;;2.87;;
67749;SDS011;54550;48.838;8.828;2022-07-29T13:09:13;5.10;;;2.70;;
67749;SDS011;54550;48.838;8.828;2022-07-29T13:11:41;13.73;;;3.07;;
67749;SDS011;54550;48.838;8.828;2022-07-29T13:14:09;13.00;;;2.97;;
67749;SDS011;54550;48.838;8.828;2022-07-29T13:16:37;5.77;;;3.20;;
67749;SDS011;54550;48.838;8.828;2022-07-29T13:19:32;12.20;;;3.10;;
67749;SDS011;54550;48.838;8.828;2022-07-29T13:22:18;10.43;;;3.10;;
67749;SDS011;54550;48.838;8.828;2022-07-29T13:27:18;7.00;;;2.47;;
67749;SDS011;54550;48.838;8.828;2022-07-29T13:29:48;6.03;;;2.50;;
67749;SDS011;54550;48.838;8.828;2022-07-29T13:32:16;6.00;;;2.50;;
67749;SDS011;54550;48.838;8.828;2022-07-29T13:34:42;4.07;;;2.33;;
67749;SDS011;54550;48.838;8.828;2022-07-29T13:37:07;4.20;;;2.67;;
67749;SDS011;54550;48.838;8.828;2022-07-29T13:39:33;3.77;;;2.90;;
67749;SDS011;54550;48.838;8.828;2022-07-29T13:41:58;8.80;;;2.97;;
67749;SDS011;54550;48.838;8.828;2022-07-29T13:44:24;4.37;;;2.57;;
67749;SDS011;54550;48.838;8.828;2022-07-29T13:46:50;9.53;;;2.70;;
67749;SDS011;54550;48.838;8.828;2022-07-29T13:49:15;7.47;;;2.30;;
67749;SDS011;54550;48.838;8.828;2022-07-29T13:51:41;6.33;;;2.37;;
67749;SDS011;54550;48.838;8.828;2022-07-29T13:54:06;3.00;;;2.17;;
67749;SDS011;54550;48.838;8.828;2022-07-29T13:56:32;9.10;;;2.33;;
67749;SDS011;54550;48.838;8.828;2022-07-29T13:58:57;8.00;;;2.00;;
67749;SDS011;54550;48.838;8.828;2022-07-29T14:01:23;4.77;;;1.90;;
67749;SDS011;54550;48.838;8.828;2022-07-29T14:03:49;3.73;;;1.60;;
67749;SDS011;54550;48.838;8.828;2022-07-29T14:06:15;18.10;;;2.27;;
67749;SDS011;54550;48.838;8.828;2022-07-29T14:08:40;5.90;;;1.80;;
67749;SDS011;54550;48.838;8.828;2022-07-29T14:11:06;19.93;;;2.17;;
67749;SDS011;54550;48.838;8.828;2022-07-29T14:13:31;4.30;;;1.87;;
67749;SDS011;54550;48.838;8.828;2022-07-29T14:15:57;2.17;;;1.37;;
67749;SDS011;54550;48.838;8.828;2022-07-29T14:18:22;6.77;;;1.80;;
67749;SDS011;54550;48.838;8.828;2022-07-29T14:20:48;2.93;;;1.87;;
67749;SDS011;54550;48.838;8.828;2022-07-29T14:23:14;4.23;;;1.47;;
67749;SDS011;54550;48.838;8.828;2022-07-29T14:25:40;3.93;;;1.60;;
67749;SDS011;54550;48.838;8.828;2022-07-29T14:28:06;5.20;;;1.63;;
67749;SDS011;54550;48.838;8.828;2022-07-29T14:30:32;2.73;;;1.63;;
67749;SDS011;54550;48.838;8.828;2022-07-29T14:32:57;4.10;;;1.60;;
67749;SDS011;54550;48.838;8.828;2022-07-29T14:35:23;2.43;;;1.30;;
67749;SDS011;54550;48.838;8.828;2022-07-29T14:37:48;11.83;;;1.70;;
67749;SDS011;54550;48.838;8.828;2022-07-29T14:40:14;13.43;;;1.93;;
67749;SDS011;54550;48.838;8.828;2022-07-29T14:42:39;7.97;;;2.00;;
67749;SDS011;54550;48.838;8.828;2022-07-29T14:45:06;3.97;;;1.50;;
67749;SDS011;54550;48.838;8.828;2022-07-29T14:47:33;4.67;;;1.40;;
67749;SDS011;54550;48.838;8.828;2022-07-29T14:49:58;17.53;;;2.40;;
67749;SDS011;54550;48.838;8.828;2022-07-29T14:52:24;1.63;;;1.40;;
67749;SDS011;54550;48.838;8.828;2022-07-29T14:54:50;4.80;;;1.67;;
67749;SDS011;54550;48.838;8.828;2022-07-29T14:57:15;3.23;;;1.70;;
67749;SDS011;54550;48.838;8.828;2022-07-29T14:59:41;5.93;;;1.70;;
67749;SDS011;54550;48.838;8.828;2022-07-29T15:02:07;3.17;;;2.20;;
67749;SDS011;54550;48.838;8.828;2022-07-29T15:04:33;3.60;;;1.70;;
67749;SDS011;54550;48.838;8.828;2022-07-29T15:06:59;3.50;;;1.60;;
67749;SDS011;54550;48.838;8.828;2022-07-29T15:09:24;7.33;;;2.03;;
67749;SDS011;54550;48.838;8.828;2022-07-29T15:11:50;3.30;;;1.50;;
67749;SDS011;54550;48.838;8.828;2022-07-29T15:14:15;3.40;;;1.60;;
67749;SDS011;54550;48.838;8.828;2022-07-29T15:16:41;3.20;;;1.90;;
67749;SDS011;54550;48.838;8.828;2022-07-29T15:19:07;9.30;;;1.83;;
67749;SDS011;54550;48.838;8.828;2022-07-29T15:21:33;8.33;;;1.77;;
67749;SDS011;54550;48.838;8.828;2022-07-29T15:23:59;9.60;;;1.73;;
67749;SDS011;54550;48.838;8.828;2022-07-29T15:26:25;12.03;;;2.10;;
67749;SDS011;54550;48.838;8.828;2022-07-29T15:28:50;12.97;;;2.23;;
67749;SDS011;54550;48.838;8.828;2022-07-29T15:31:16;9.63;;;2.37;;
67749;SDS011;54550;48.838;8.828;2022-07-29T15:33:43;3.40;;;2.10;;
67749;SDS011;54550;48.838;8.828;2022-07-29T15:36:09;12.70;;;2.23;;
67749;SDS011;54550;48.838;8.828;2022-07-29T15:38:37;7.50;;;2.20;;
67749;SDS011;54550;48.838;8.828;2022-07-29T15:41:02;11.13;;;1.97;;
67749;SDS011;54550;48.838;8.828;2022-07-29T15:43:28;3.30;;;1.80;;
67749;SDS011;54550;48.838;8.828;2022-07-29T15:45:54;7.53;;;1.90;;
67749;SDS011;54550;48.838;8.828;2022-07-29T15:48:38;12.83;;;2.17;;